Cote D IVoirian Star — A8SL4 — position and weather

sailwx.info

Track history (hours):
 
Tides and Currents Weather Stations Pressure Air Temp Water Temp Dewpoint Dewpoint Depression Visibility Wind Speed Wind Dir Waves Ship Positions

Cote D IVoirian Star

Last reported at 2014-Jul-03 20:17 UTC. Time now 2014-Jul-22 23:42 UTC.
Position N 50°06' W 002°19'.
Warning: this ship's position is 19 days out of date.

Length 185 m; draft 8 m.

Type: Cargo ship. MMSI: 636014241.

Date/timePositionNaut miles runAvg speedWind from/ knotsBaromVisibWave heightAir tempDewpointWater temp
2014-Jul-03 20:17N 50°06' W 002°19'1520.4
2014-Jul-03 19:33N 50°10' W 001°57'2221.6
2014-Jul-03 18:33N 50°15' W 001°24'2322.6
2014-Jul-03 17:34N 50°20' W 000°50'2221.4
2014-Jul-03 16:33N 50°26' W 000°17'2019.9
2014-Jul-03 15:34N 50°31' E 000°13'1919.0
2014-Jul-03 14:34N 50°38' E 000°40'1918.6
2014-Jul-03 13:33N 50°49' E 001°05'1919.1
2014-Jul-03 12:34N 51°02' E 001°27'2121.2
2014-Jul-03 11:33N 51°17' E 001°50'1616.3
2014-Jul-03 10:34N 51°20' E 002°15'1817.6
2014-Jul-03 09:34N 51°22' E 002°44'1413.5
2014-Jul-03 08:33N 51°24' E 003°05'1515.4
2014-Jul-03 07:33N 51°25' E 003°30'9 9.4
2014-Jul-03 06:33N 51°23' E 003°44'1110.9
2014-Jul-03 05:34N 51°26' E 004°00'9 8.6
2014-Jul-03 04:33N 51°23' E 004°13'7 7.2
2014-Jul-03 03:34N 51°16' E 004°17'0 0.5
2014-Jul-03 02:34N 51°16' E 004°17'1 1.3
2014-Jul-03 01:32N 51°16' E 004°15'0 0.0
2014-Jul-03 00:29N 51°16' E 004°15'0 0.0
2014-Jul-02 23:29N 51°16' E 004°15'0 0.0
2014-Jul-02 22:32N 51°16' E 004°15'0 0.0
2014-Jul-02 21:32N 51°16' E 004°15'0 0.0
2014-Jul-02 20:29N 51°16' E 004°15'0 0.0
2014-Jul-02 19:34N 51°16' E 004°15'0 0.0
2014-Jul-02 18:33N 51°16' E 004°15'0 0.0
2014-Jul-02 17:33N 51°16' E 004°15'0 0.0
2014-Jul-02 16:34N 51°16' E 004°15'0 0.0
2014-Jul-02 15:33N 51°16' E 004°15'0 0.0
2014-Jul-02 14:34N 51°16' E 004°15'0 0.0
2014-Jul-02 13:33N 51°16' E 004°15'0 0.0
2014-Jul-02 12:33N 51°16' E 004°15'0 0.0
2014-Jul-02 11:33N 51°16' E 004°15'0 0.0
2014-Jul-02 10:33N 51°16' E 004°15'0 0.0
2014-Jul-02 09:33N 51°16' E 004°15'0 0.0
2014-Jul-02 08:33N 51°16' E 004°15'0 0.0
2014-Jul-02 07:34N 51°16' E 004°15'0 0.0
2014-Jul-02 06:33N 51°16' E 004°15'0 0.0
2014-Jul-02 05:33N 51°16' E 004°15'0 0.0
2014-Jul-02 04:33N 51°16' E 004°15'0 0.0
2014-Jul-02 03:33N 51°16' E 004°15'0 0.0
2014-Jul-02 02:33N 51°16' E 004°15'0 0.0
2014-Jul-02 01:33N 51°16' E 004°15'0 0.0
2014-Jul-02 00:33N 51°16' E 004°15'0 0.0
2014-Jul-01 23:34N 51°16' E 004°15'0 0.0
2014-Jul-01 22:33N 51°16' E 004°15'0 0.0
2014-Jul-01 21:33N 51°16' E 004°15'0 0.0
2014-Jul-01 20:33N 51°16' E 004°15'0 0.0
2014-Jul-01 19:33N 51°16' E 004°15'0 0.0
2014-Jul-01 18:33N 51°16' E 004°15'0 0.0
2014-Jul-01 17:33N 51°16' E 004°15'0 0.0
2014-Jul-01 16:33N 51°16' E 004°15'0 0.0
2014-Jul-01 15:33N 51°16' E 004°15'0 0.0
2014-Jul-01 14:34N 51°16' E 004°15'0 0.0
2014-Jul-01 13:33N 51°16' E 004°15'0 0.0
2014-Jul-01 12:33N 51°16' E 004°15'0 0.0
2014-Jul-01 11:33N 51°16' E 004°15'0 0.0
2014-Jul-01 10:33N 51°16' E 004°15'0 0.0
2014-Jul-01 09:33N 51°16' E 004°15'0 0.0
2014-Jul-01 08:33N 51°16' E 004°15'0 0.2
2014-Jul-01 07:33N 51°16' E 004°15'1 1.3
2014-Jul-01 06:33N 51°16' E 004°17'2 2.1
2014-Jul-01 05:33N 51°18' E 004°19'8 7.9
2014-Jul-01 04:33N 51°22' E 004°09'1010.4
2014-Jul-01 03:34N 51°21' E 003°52'1212.1
2014-Jul-01 02:34N 51°25' E 003°34'1818.2
2014-Jul-01 01:33N 51°24' E 003°05'1414.5
2014-Jul-01 00:33N 51°21' E 002°42'1413.9
2014-Jun-30 23:32N 51°19' E 002°20'1818.2
2014-Jun-30 22:33N 51°10' E 001°55'1616.4
2014-Jun-30 21:33N 51°03' E 001°32'8 0.7
2014-Jun-30 09:26N 51°08' E 001°21'0 0.0
2014-Jun-30 07:28N 51°08' E 001°20'0 0.0
2014-Jun-30 06:33N 51°08' E 001°20'0 0.0
2014-Jun-30 05:33N 51°08' E 001°21'0 0.4
2014-Jun-30 04:30N 51°07' E 001°20'6 6.1
2014-Jun-30 03:33N 51°06' E 001°29'4 4.1
2014-Jun-30 02:33N 51°03' E 001°34'9 9.1
2014-Jun-30 01:33N 50°55' E 001°27'2617.4
2014-Jun-30 00:04N 50°33' E 001°04'917.2
2014-Jun-29 23:31N 50°29' E 000°51'1616.4
2014-Jun-29 22:33N 50°24' E 000°27'5117.1
2014-Jun-29 19:33N 50°10' W 000°50'1917.8
2014-Jun-29 18:30N 50°06' W 001°19'18513.9
2014-Jun-29 05:11N 48°19' W 005°09'1218.3
2014-Jun-29 04:33N 48°15' W 004°53'4 4.4
2014-Jun-29 03:34N 48°17' W 004°46'1615.8
2014-Jun-29 02:33N 48°10' W 005°08'60518.8
2014-Jun-27 18:22N 39°17' W 011°45'5519.6
2014-Jun-27 15:32N 38°23' W 011°59'8619.5
2014-Jun-27 11:07N 36°59' W 012°26'  
Track history (hours):
 
Tides and Currents Weather Stations Pressure Air Temp Water Temp Dewpoint Dewpoint Depression Visibility Wind Speed Wind Dir Waves Ship Positions

Cote D IVoirian Star

Last reported at 2014-Jul-03 20:17 UTC. Time now 2014-Jul-22 23:42 UTC.
Position N 50°06' W 002°19'.
Warning: this ship's position is 19 days out of date.

Length 185 m; draft 8 m.

Type: Cargo ship. MMSI: 636014241.

Date/timePositionNaut miles runAvg speedWind from/ knotsBaromVisibWave heightAir tempDewpointWater temp
2014-Jul-03 20:17N 50°06' W 002°19'1520.4
2014-Jul-03 19:33N 50°10' W 001°57'2221.6
2014-Jul-03 18:33N 50°15' W 001°24'2322.6
2014-Jul-03 17:34N 50°20' W 000°50'2221.4
2014-Jul-03 16:33N 50°26' W 000°17'2019.9
2014-Jul-03 15:34N 50°31' E 000°13'1919.0
2014-Jul-03 14:34N 50°38' E 000°40'1918.6
2014-Jul-03 13:33N 50°49' E 001°05'1919.1
2014-Jul-03 12:34N 51°02' E 001°27'2121.2
2014-Jul-03 11:33N 51°17' E 001°50'1616.3
2014-Jul-03 10:34N 51°20' E 002°15'1817.6
2014-Jul-03 09:34N 51°22' E 002°44'1413.5
2014-Jul-03 08:33N 51°24' E 003°05'1515.4
2014-Jul-03 07:33N 51°25' E 003°30'9 9.4
2014-Jul-03 06:33N 51°23' E 003°44'1110.9
2014-Jul-03 05:34N 51°26' E 004°00'9 8.6
2014-Jul-03 04:33N 51°23' E 004°13'7 7.2
2014-Jul-03 03:34N 51°16' E 004°17'0 0.5
2014-Jul-03 02:34N 51°16' E 004°17'1 1.3
2014-Jul-03 01:32N 51°16' E 004°15'0 0.0
2014-Jul-03 00:29N 51°16' E 004°15'0 0.0
2014-Jul-02 23:29N 51°16' E 004°15'0 0.0
2014-Jul-02 22:32N 51°16' E 004°15'0 0.0
2014-Jul-02 21:32N 51°16' E 004°15'0 0.0
2014-Jul-02 20:29N 51°16' E 004°15'0 0.0
2014-Jul-02 19:34N 51°16' E 004°15'0 0.0
2014-Jul-02 18:33N 51°16' E 004°15'0 0.0
2014-Jul-02 17:33N 51°16' E 004°15'0 0.0
2014-Jul-02 16:34N 51°16' E 004°15'0 0.0
2014-Jul-02 15:33N 51°16' E 004°15'0 0.0
2014-Jul-02 14:34N 51°16' E 004°15'0 0.0
2014-Jul-02 13:33N 51°16' E 004°15'0 0.0
2014-Jul-02 12:33N 51°16' E 004°15'0 0.0
2014-Jul-02 11:33N 51°16' E 004°15'0 0.0
2014-Jul-02 10:33N 51°16' E 004°15'0 0.0
2014-Jul-02 09:33N 51°16' E 004°15'0 0.0
2014-Jul-02 08:33N 51°16' E 004°15'0 0.0
2014-Jul-02 07:34N 51°16' E 004°15'0 0.0
2014-Jul-02 06:33N 51°16' E 004°15'0 0.0
2014-Jul-02 05:33N 51°16' E 004°15'0 0.0
2014-Jul-02 04:33N 51°16' E 004°15'0 0.0
2014-Jul-02 03:33N 51°16' E 004°15'0 0.0
2014-Jul-02 02:33N 51°16' E 004°15'0 0.0
2014-Jul-02 01:33N 51°16' E 004°15'0 0.0
2014-Jul-02 00:33N 51°16' E 004°15'0 0.0
2014-Jul-01 23:34N 51°16' E 004°15'0 0.0
2014-Jul-01 22:33N 51°16' E 004°15'0 0.0
2014-Jul-01 21:33N 51°16' E 004°15'0 0.0
2014-Jul-01 20:33N 51°16' E 004°15'0 0.0
2014-Jul-01 19:33N 51°16' E 004°15'0 0.0
2014-Jul-01 18:33N 51°16' E 004°15'0 0.0
2014-Jul-01 17:33N 51°16' E 004°15'0 0.0
2014-Jul-01 16:33N 51°16' E 004°15'0 0.0
2014-Jul-01 15:33N 51°16' E 004°15'0 0.0
2014-Jul-01 14:34N 51°16' E 004°15'0 0.0
2014-Jul-01 13:33N 51°16' E 004°15'0 0.0
2014-Jul-01 12:33N 51°16' E 004°15'0 0.0
2014-Jul-01 11:33N 51°16' E 004°15'0 0.0
2014-Jul-01 10:33N 51°16' E 004°15'0 0.0
2014-Jul-01 09:33N 51°16' E 004°15'0 0.0
2014-Jul-01 08:33N 51°16' E 004°15'0 0.2
2014-Jul-01 07:33N 51°16' E 004°15'1 1.3
2014-Jul-01 06:33N 51°16' E 004°17'2 2.1
2014-Jul-01 05:33N 51°18' E 004°19'8 7.9
2014-Jul-01 04:33N 51°22' E 004°09'1010.4
2014-Jul-01 03:34N 51°21' E 003°52'1212.1
2014-Jul-01 02:34N 51°25' E 003°34'1818.2
2014-Jul-01 01:33N 51°24' E 003°05'1414.5
2014-Jul-01 00:33N 51°21' E 002°42'1413.9
2014-Jun-30 23:32N 51°19' E 002°20'1818.2
2014-Jun-30 22:33N 51°10' E 001°55'1616.4
2014-Jun-30 21:33N 51°03' E 001°32'8 0.7
2014-Jun-30 09:26N 51°08' E 001°21'0 0.0
2014-Jun-30 07:28N 51°08' E 001°20'0 0.0
2014-Jun-30 06:33N 51°08' E 001°20'0 0.0
2014-Jun-30 05:33N 51°08' E 001°21'0 0.4
2014-Jun-30 04:30N 51°07' E 001°20'6 6.1
2014-Jun-30 03:33N 51°06' E 001°29'4 4.1
2014-Jun-30 02:33N 51°03' E 001°34'9 9.1
2014-Jun-30 01:33N 50°55' E 001°27'2617.4
2014-Jun-30 00:04N 50°33' E 001°04'917.2
2014-Jun-29 23:31N 50°29' E 000°51'1616.4
2014-Jun-29 22:33N 50°24' E 000°27'5117.1
2014-Jun-29 19:33N 50°10' W 000°50'1917.8
2014-Jun-29 18:30N 50°06' W 001°19'18513.9
2014-Jun-29 05:11N 48°19' W 005°09'1218.3
2014-Jun-29 04:33N 48°15' W 004°53'4 4.4
2014-Jun-29 03:34N 48°17' W 004°46'1615.8
2014-Jun-29 02:33N 48°10' W 005°08'60518.8
2014-Jun-27 18:22N 39°17' W 011°45'5519.6
2014-Jun-27 15:32N 38°23' W 011°59'8619.5
2014-Jun-27 11:07N 36°59' W 012°26'  

Dump ship's entire track history